createdAt,value
2019-03-30T00:01:19.414Z,61.89
2019-03-30T00:03:47.793Z,61.81
2019-03-30T00:06:15.074Z,61.73
2019-03-30T00:08:42.402Z,61.84
2019-03-30T00:11:09.439Z,61.78
2019-03-30T00:13:36.494Z,61.77
2019-03-30T00:16:03.531Z,61.86
2019-03-30T00:18:30.579Z,61.63
2019-03-30T00:20:57.617Z,62.00
2019-03-30T00:23:24.666Z,62.33
2019-03-30T00:25:52.681Z,62.38
2019-03-30T00:28:19.736Z,62.46
2019-03-30T00:30:46.783Z,62.34
2019-03-30T00:33:14.797Z,62.51
2019-03-30T00:35:41.834Z,62.53
2019-03-30T00:38:08.892Z,62.55
2019-03-30T00:40:35.932Z,62.45
2019-03-30T00:43:03.336Z,62.40
2019-03-30T00:45:30.618Z,62.55
2019-03-30T00:47:57.658Z,62.78
2019-03-30T00:50:24.714Z,62.95
2019-03-30T00:52:51.747Z,63.05
2019-03-30T00:55:18.799Z,63.39
2019-03-30T00:57:45.839Z,63.32
2019-03-30T01:00:12.898Z,63.54
2019-03-30T01:02:39.930Z,63.59
2019-03-30T01:05:06.982Z,63.71
2019-03-30T01:07:34.326Z,63.77
2019-03-30T01:10:02.453Z,63.67
2019-03-30T01:12:29.490Z,63.86
2019-03-30T01:14:56.794Z,63.99
2019-03-30T01:17:25.066Z,63.84
2019-03-30T01:20:02.672Z,63.79
2019-03-30T01:22:21.120Z,63.50
2019-03-30T01:24:48.179Z,63.49
2019-03-30T01:27:15.459Z,63.24
2019-03-30T01:29:42.505Z,63.01
2019-03-30T01:32:09.539Z,63.16
2019-03-30T01:34:36.589Z,63.32
2019-03-30T01:37:03.877Z,63.39
2019-03-30T01:39:30.920Z,63.06
2019-03-30T01:41:57.952Z,63.00
2019-03-30T01:44:25.000Z,63.03
2019-03-30T01:46:52.282Z,63.06
2019-03-30T01:49:19.336Z,63.09
2019-03-30T01:51:46.621Z,63.34
2019-03-30T01:54:13.934Z,63.76
2019-03-30T01:56:40.974Z,63.94
2019-03-30T01:59:08.021Z,64.08
2019-03-30T02:01:35.060Z,64.60
2019-03-30T02:04:02.105Z,64.87
2019-03-30T02:06:29.137Z,64.95
2019-03-30T02:08:56.187Z,65.03
2019-03-30T02:11:23.224Z,65.14
2019-03-30T02:13:50.268Z,65.28
2019-03-30T02:16:17.623Z,65.48
2019-03-30T02:18:44.934Z,65.32
2019-03-30T02:21:11.969Z,65.45
2019-03-30T02:23:39.011Z,65.27
2019-03-30T02:26:06.311Z,65.54
2019-03-30T02:28:33.348Z,65.44
2019-03-30T02:31:00.402Z,65.49
2019-03-30T02:33:27.698Z,65.73
2019-03-30T02:35:54.735Z,65.56
2019-03-30T02:38:21.772Z,65.61
2019-03-30T02:40:48.827Z,65.69
2019-03-30T02:43:16.132Z,65.91
2019-03-30T02:45:43.179Z,66.55
2019-03-30T02:48:10.462Z,67.13
2019-03-30T02:50:49.541Z,67.64
2019-03-30T02:53:06.239Z,68.00
2019-03-30T02:55:33.532Z,68.58
2019-03-30T02:58:00.812Z,68.68
2019-03-30T03:00:28.102Z,68.84
2019-03-30T03:02:55.135Z,69.31
2019-03-30T03:05:22.182Z,69.61
2019-03-30T03:07:49.289Z,70.42
2019-03-30T03:10:16.340Z,70.64
2019-03-30T03:12:43.631Z,71.48
2019-03-30T03:15:10.928Z,71.69
2019-03-30T03:17:38.218Z,72.23
2019-03-30T03:20:05.374Z,72.54
2019-03-30T03:22:32.631Z,72.44
2019-03-30T03:24:59.678Z,72.39
2019-03-30T03:27:26.732Z,72.40
2019-03-30T03:29:54.179Z,72.61
2019-03-30T03:32:21.469Z,72.68
2019-03-30T03:34:48.864Z,72.95
2019-03-30T03:37:15.899Z,72.98
2019-03-30T03:39:42.948Z,73.24
2019-03-30T03:42:10.316Z,73.42
2019-03-30T03:44:37.369Z,73.58
2019-03-30T03:47:04.396Z,73.61
2019-03-30T03:49:31.787Z,74.00
2019-03-30T03:51:59.139Z,73.77
2019-03-30T03:54:26.172Z,73.88
2019-03-30T03:56:53.456Z,73.94
2019-03-30T03:59:20.777Z,74.17
2019-03-30T04:01:48.068Z,74.62
2019-03-30T04:04:15.110Z,75.10
2019-03-30T04:06:42.160Z,75.39
2019-03-30T04:09:09.485Z,76.31
2019-03-30T04:11:36.831Z,76.37
2019-03-30T04:14:04.187Z,76.62
2019-03-30T04:16:31.236Z,77.04
2019-03-30T04:18:58.613Z,76.50
2019-03-30T04:21:42.425Z,75.67
2019-03-30T04:23:54.943Z,75.84
2019-03-30T04:26:22.089Z,75.41
2019-03-30T04:28:49.442Z,75.32
2019-03-30T04:31:16.507Z,75.05
2019-03-30T04:33:43.863Z,74.55
2019-03-30T04:36:11.204Z,74.56
2019-03-30T04:38:38.567Z,74.33
2019-03-30T04:41:05.859Z,74.40
2019-03-30T04:43:32.982Z,74.40
2019-03-30T04:46:00.333Z,74.38
2019-03-30T04:48:29.499Z,74.22
2019-03-30T04:50:56.457Z,74.11
2019-03-30T04:53:23.495Z,74.21
2019-03-30T04:55:50.865Z,74.31
2019-03-30T04:58:18.221Z,74.40
2019-03-30T05:00:45.593Z,74.59
2019-03-30T05:03:12.926Z,74.73
2019-03-30T05:05:43.002Z,74.92
2019-03-30T05:08:09.303Z,75.32
2019-03-30T05:10:36.348Z,75.63
2019-03-30T05:13:03.697Z,75.42
2019-03-30T05:15:30.734Z,75.19
2019-03-30T05:17:57.786Z,74.85
2019-03-30T05:20:25.079Z,74.20
2019-03-30T05:22:52.501Z,73.54
2019-03-30T05:25:20.769Z,72.68
2019-03-30T05:27:47.815Z,71.23
2019-03-30T05:30:14.856Z,69.32
2019-03-30T05:32:42.130Z,66.07
2019-03-30T05:35:09.617Z,63.75
2019-03-30T05:37:37.801Z,60.99
2019-03-30T05:40:05.099Z,58.74
2019-03-30T05:42:32.658Z,55.93
2019-03-30T05:45:00.030Z,54.84
2019-03-30T05:47:27.376Z,52.35
2019-03-30T05:49:54.722Z,49.52
2019-03-30T05:52:26.781Z,48.98
2019-03-30T05:54:50.872Z,46.18
2019-03-30T05:57:18.224Z,45.39
2019-03-30T05:59:45.272Z,44.46
2019-03-30T06:02:12.624Z,43.54
2019-03-30T06:04:39.906Z,41.39
2019-03-30T06:07:11.270Z,40.08
2019-03-30T06:09:38.302Z,41.53
2019-03-30T06:12:05.373Z,41.57
2019-03-30T06:14:32.682Z,39.73
2019-03-30T06:16:59.731Z,39.06
2019-03-30T06:19:27.083Z,38.17
2019-03-30T06:21:54.141Z,37.33
2019-03-30T06:24:21.487Z,35.86
2019-03-30T06:26:49.885Z,34.34
2019-03-30T06:29:16.927Z,33.79
2019-03-30T06:31:46.878Z,32.18
2019-03-30T06:34:13.364Z,32.08
2019-03-30T06:36:40.733Z,31.74
2019-03-30T06:39:12.993Z,30.64
2019-03-30T06:41:40.041Z,29.19
2019-03-30T06:44:07.390Z,28.58
2019-03-30T06:46:34.750Z,28.38
2019-03-30T06:49:02.041Z,27.53
2019-03-30T06:51:29.075Z,27.49
2019-03-30T06:53:56.127Z,28.27
2019-03-30T06:56:23.223Z,27.27
2019-03-30T06:58:50.223Z,26.40
2019-03-30T07:01:17.258Z,26.04
2019-03-30T07:03:44.596Z,24.99
2019-03-30T07:06:11.885Z,24.23
2019-03-30T07:08:39.198Z,23.29
2019-03-30T07:11:20.218Z,22.74
2019-03-30T07:13:35.258Z,22.52
2019-03-30T07:16:02.300Z,22.22
2019-03-30T07:18:29.647Z,22.37
2019-03-30T07:20:57.004Z,23.44
2019-03-30T07:23:24.056Z,24.92
2019-03-30T07:25:51.409Z,25.73
2019-03-30T07:28:18.457Z,26.48
2019-03-30T07:30:45.822Z,27.17
2019-03-30T07:33:13.181Z,27.98
2019-03-30T07:35:41.540Z,28.53
2019-03-30T07:38:08.599Z,29.07
2019-03-30T07:40:35.943Z,28.50
2019-03-30T07:43:03.315Z,28.03
2019-03-30T07:45:40.998Z,28.74
2019-03-30T07:48:08.055Z,28.52
2019-03-30T07:50:35.419Z,28.44
2019-03-30T07:53:02.765Z,28.37
2019-03-30T07:55:30.052Z,28.38
2019-03-30T07:57:57.134Z,28.54
2019-03-30T08:00:30.452Z,28.28
2019-03-30T08:02:53.608Z,27.59
2019-03-30T08:05:20.962Z,27.51
2019-03-30T08:07:48.004Z,27.76
2019-03-30T08:10:15.062Z,27.66
2019-03-30T08:12:42.099Z,28.46
2019-03-30T08:15:09.466Z,28.86
2019-03-30T08:17:36.835Z,28.26
2019-03-30T08:20:04.172Z,27.68
2019-03-30T08:22:31.527Z,27.81
2019-03-30T08:24:58.881Z,26.62
2019-03-30T08:27:27.263Z,26.98
2019-03-30T08:29:54.315Z,26.56
2019-03-30T08:32:22.585Z,26.37
2019-03-30T08:34:49.643Z,27.01
2019-03-30T08:37:16.947Z,27.50
2019-03-30T08:39:44.002Z,26.44
2019-03-30T08:45:05.606Z,24.66
2019-03-30T08:47:32.636Z,24.29
2019-03-30T08:49:59.999Z,24.81
2019-03-30T08:52:27.335Z,24.26
2019-03-30T08:54:54.389Z,23.91
2019-03-30T08:57:21.446Z,24.47
2019-03-30T08:59:48.503Z,24.26
2019-03-30T09:02:15.542Z,25.66
2019-03-30T09:04:42.600Z,25.27
2019-03-30T09:07:09.935Z,25.62
2019-03-30T09:09:36.994Z,26.27
2019-03-30T09:12:04.356Z,25.42
2019-03-30T09:14:31.665Z,24.73
2019-03-30T09:16:59.062Z,24.70
2019-03-30T09:19:26.399Z,25.27
2019-03-30T09:21:53.751Z,25.31
2019-03-30T09:24:20.806Z,27.23
2019-03-30T09:26:48.159Z,26.76
2019-03-30T09:29:15.527Z,25.21
2019-03-30T09:31:42.574Z,25.22
2019-03-30T09:34:09.929Z,25.79
2019-03-30T09:36:37.420Z,26.55
2019-03-30T09:39:04.847Z,27.07
2019-03-30T09:41:31.910Z,26.85
2019-03-30T09:43:59.230Z,27.17
2019-03-30T09:46:26.295Z,27.24
2019-03-30T09:48:53.343Z,27.37
2019-03-30T09:51:20.683Z,26.66
2019-03-30T09:53:48.038Z,26.67
2019-03-30T09:56:15.413Z,26.16
2019-03-30T09:58:42.446Z,25.87
2019-03-30T10:03:52.203Z,24.43
2019-03-30T10:06:19.262Z,24.29
2019-03-30T10:08:46.301Z,24.42
2019-03-30T10:11:13.657Z,24.21
2019-03-30T10:13:41.011Z,24.01
2019-03-30T10:16:08.364Z,24.50
2019-03-30T10:18:36.374Z,24.70
2019-03-30T10:21:03.434Z,25.12
2019-03-30T10:23:30.741Z,23.79
2019-03-30T10:25:57.794Z,24.38
2019-03-30T10:28:25.082Z,24.01
2019-03-30T10:30:52.191Z,24.27
2019-03-30T10:33:20.058Z,24.94
2019-03-30T10:35:47.411Z,25.30
2019-03-30T10:38:14.458Z,25.18
2019-03-30T10:40:41.816Z,24.14
2019-03-30T10:43:09.170Z,24.78
2019-03-30T10:45:36.527Z,25.51
2019-03-30T10:48:04.904Z,25.37
2019-03-30T10:50:32.258Z,25.67
2019-03-30T10:52:59.314Z,25.51
2019-03-30T10:55:26.361Z,26.36
2019-03-30T10:57:53.656Z,25.65
2019-03-30T11:00:20.982Z,25.24
2019-03-30T11:02:48.319Z,25.13
2019-03-30T11:05:15.672Z,25.91
2019-03-30T11:07:43.031Z,26.65
2019-03-30T11:10:10.382Z,25.25
2019-03-30T11:12:37.738Z,24.96
2019-03-30T11:15:05.091Z,25.08
2019-03-30T11:17:38.387Z,24.44
2019-03-30T11:20:05.431Z,25.71
2019-03-30T11:22:32.713Z,26.26
2019-03-30T11:25:07.501Z,25.47
2019-03-30T11:27:29.757Z,26.99
2019-03-30T11:29:56.789Z,26.81
2019-03-30T11:32:24.154Z,26.53
2019-03-30T11:34:51.510Z,25.87
2019-03-30T11:37:21.124Z,24.78
2019-03-30T11:39:48.414Z,24.95
2019-03-30T11:42:15.833Z,25.45
2019-03-30T11:44:43.207Z,24.05
2019-03-30T11:47:10.559Z,23.19
2019-03-30T11:49:37.896Z,22.65
2019-03-30T11:52:04.958Z,22.15
2019-03-30T11:54:31.994Z,21.82
2019-03-30T11:56:59.579Z,21.11
2019-03-30T11:59:27.209Z,20.22
2019-03-30T12:01:54.570Z,21.12
2019-03-30T12:04:22.860Z,21.27
2019-03-30T12:06:51.788Z,21.09
2019-03-30T12:09:18.992Z,19.74
2019-03-30T12:11:46.166Z,18.91
2019-03-30T12:14:13.306Z,20.64
2019-03-30T12:16:40.357Z,21.68
2019-03-30T12:19:07.421Z,20.04
2019-03-30T12:21:34.460Z,19.51
2019-03-30T12:24:01.529Z,18.33
2019-03-30T12:26:28.827Z,17.76
2019-03-30T12:28:55.886Z,18.70
2019-03-30T12:31:22.940Z,19.75
2019-03-30T12:33:50.010Z,20.18
2019-03-30T12:36:17.044Z,19.87
2019-03-30T12:38:44.121Z,19.45
2019-03-30T12:41:11.161Z,19.06
2019-03-30T12:43:39.162Z,19.46
2019-03-30T12:46:09.304Z,19.68
2019-03-30T12:48:36.368Z,20.46
2019-03-30T12:51:03.734Z,21.72
2019-03-30T12:53:30.796Z,21.02
2019-03-30T12:55:58.123Z,20.69
2019-03-30T13:01:07.509Z,19.58
2019-03-30T13:03:36.725Z,20.27
2019-03-30T13:06:06.163Z,21.45
2019-03-30T13:08:36.039Z,21.32
2019-03-30T13:11:04.345Z,21.52
2019-03-30T13:13:32.806Z,21.70
2019-03-30T13:16:01.166Z,22.15
2019-03-30T13:18:28.436Z,24.05
2019-03-30T13:20:55.507Z,23.66
2019-03-30T13:26:03.539Z,25.94
2019-03-30T13:28:25.393Z,25.85
2019-03-30T13:30:59.187Z,25.06
2019-03-30T13:36:23.710Z,26.54
2019-03-30T13:38:55.043Z,25.76
2019-03-30T13:41:30.402Z,27.18
2019-03-30T13:43:57.590Z,27.30
2019-03-30T13:46:25.840Z,26.70
2019-03-30T13:48:55.057Z,26.75
2019-03-30T13:51:24.232Z,26.74
2019-03-30T13:53:51.559Z,26.54
2019-03-30T14:01:41.852Z,27.87
2019-03-30T14:04:12.164Z,27.10
2019-03-30T14:06:40.118Z,27.50
2019-03-30T14:09:08.349Z,27.44
2019-03-30T14:11:40.185Z,26.72
2019-03-30T14:14:07.551Z,24.73
2019-03-30T14:16:41.878Z,24.24
2019-03-30T14:19:10.151Z,25.14
2019-03-30T14:21:42.155Z,24.25
2019-03-30T14:24:10.378Z,24.75
2019-03-30T14:26:40.937Z,24.65
2019-03-30T14:29:12.579Z,24.68
2019-03-30T14:31:42.654Z,24.59
2019-03-30T14:34:09.922Z,25.65
2019-03-30T14:36:37.343Z,27.11
2019-03-30T14:39:08.586Z,27.52
2019-03-30T14:41:36.782Z,27.31
2019-03-30T14:46:58.489Z,27.68
2019-03-30T14:57:23.303Z,27.86
2019-03-30T14:59:52.743Z,27.25
2019-03-30T15:10:46.731Z,28.27
2019-03-30T15:16:07.247Z,28.18
2019-03-30T15:18:42.829Z,27.90
2019-03-30T15:21:10.048Z,27.74
2019-03-30T15:23:42.587Z,27.32
2019-03-30T15:28:58.230Z,26.83
2019-03-30T15:34:11.525Z,27.61
2019-03-30T15:36:42.924Z,28.04
2019-03-30T15:39:22.543Z,27.77
2019-03-30T15:44:29.004Z,28.80
2019-03-30T15:46:59.917Z,27.72
2019-03-30T15:49:29.167Z,27.62
2019-03-30T15:54:48.988Z,27.83
2019-03-30T15:57:16.613Z,27.78
2019-03-30T15:59:44.725Z,28.31
2019-03-30T16:04:49.768Z,28.63
2019-03-30T16:07:21.837Z,29.21
2019-03-30T16:12:42.961Z,28.51
2019-03-30T16:17:56.102Z,27.94
2019-03-30T16:20:23.353Z,28.11
2019-03-30T16:22:54.246Z,28.79
2019-03-30T16:25:28.874Z,29.35
2019-03-30T16:27:56.328Z,29.54
2019-03-30T16:33:11.024Z,29.74
2019-03-30T16:35:38.367Z,29.43
2019-03-30T16:38:05.823Z,29.79
2019-03-30T16:40:32.871Z,29.58
2019-03-30T16:43:02.377Z,29.66
2019-03-30T16:45:30.577Z,29.62
2019-03-30T16:48:01.950Z,29.54
2019-03-30T16:50:32.149Z,29.43
2019-03-30T16:55:40.554Z,30.32
2019-03-30T16:58:08.775Z,30.69
2019-03-30T17:00:55.632Z,31.06
2019-03-30T17:03:12.242Z,32.31
2019-03-30T17:05:43.631Z,32.94
2019-03-30T17:11:03.906Z,33.96
2019-03-30T17:13:31.359Z,33.96
2019-03-30T17:16:00.592Z,33.95
2019-03-30T17:18:33.958Z,34.26
2019-03-30T17:21:01.139Z,34.65
2019-03-30T17:23:29.331Z,35.29
2019-03-30T17:26:02.706Z,35.84
2019-03-30T17:33:36.415Z,36.82
2019-03-30T17:36:09.338Z,37.06
2019-03-30T17:41:09.846Z,37.60
2019-03-30T17:46:15.151Z,38.29
2019-03-30T17:48:42.214Z,38.35
2019-03-30T17:51:18.298Z,38.40
2019-03-30T17:53:47.821Z,38.46
2019-03-30T17:56:16.319Z,38.32
2019-03-30T17:58:44.788Z,38.31
2019-03-30T18:01:15.755Z,38.41
2019-03-30T18:03:43.949Z,38.68
2019-03-30T18:06:11.866Z,38.68
2019-03-30T18:08:43.982Z,38.31
2019-03-30T18:11:13.438Z,37.95
2019-03-30T18:13:44.478Z,37.94
2019-03-30T18:16:11.835Z,38.10
2019-03-30T18:18:42.115Z,38.10
2019-03-30T18:21:20.675Z,38.34
2019-03-30T18:23:49.940Z,37.99
2019-03-30T18:26:18.183Z,38.20
2019-03-30T18:28:47.398Z,38.21
2019-03-30T18:31:15.320Z,41.02
2019-03-30T18:33:43.537Z,40.03
2019-03-30T18:36:11.581Z,39.21
2019-03-30T18:38:39.020Z,38.88
2019-03-30T18:41:06.200Z,38.34
2019-03-30T18:43:33.473Z,38.02
2019-03-30T18:46:06.390Z,37.85
2019-03-30T18:48:37.981Z,37.73
2019-03-30T18:51:06.448Z,37.44
2019-03-30T18:53:34.115Z,37.42
2019-03-30T18:56:02.610Z,37.45
2019-03-30T18:58:41.045Z,37.43
2019-03-30T19:00:59.591Z,37.51
2019-03-30T19:03:26.926Z,37.67
2019-03-30T19:05:53.967Z,37.79
2019-03-30T19:08:21.542Z,38.06
2019-03-30T19:10:48.874Z,38.24
2019-03-30T19:13:16.249Z,38.39
2019-03-30T19:15:43.580Z,38.43
2019-03-30T19:18:11.898Z,38.41
2019-03-30T19:20:39.284Z,38.46
2019-03-30T19:23:13.671Z,38.63
2019-03-30T19:25:45.709Z,38.27
2019-03-30T19:28:14.939Z,38.19
2019-03-30T19:30:43.140Z,38.07
2019-03-30T19:33:15.368Z,37.92
2019-03-30T19:35:44.598Z,37.93
2019-03-30T19:38:11.637Z,38.00
2019-03-30T19:40:39.810Z,38.07
2019-03-30T19:43:16.753Z,38.17
2019-03-30T19:45:45.065Z,38.39
2019-03-30T19:48:18.730Z,38.34
2019-03-30T19:50:46.185Z,38.12
2019-03-30T19:53:13.949Z,38.01
2019-03-30T19:55:41.145Z,37.92
2019-03-30T19:58:09.093Z,38.03
2019-03-30T20:00:38.694Z,37.94
2019-03-30T20:03:06.520Z,38.15
2019-03-30T20:05:35.679Z,38.20
2019-03-30T20:08:11.966Z,38.29
2019-03-30T20:10:34.616Z,38.28
2019-03-30T20:13:15.138Z,38.26
2019-03-30T20:15:42.417Z,38.33
2019-03-30T20:18:10.685Z,38.23
2019-03-30T20:20:37.942Z,38.04
2019-03-30T20:23:08.730Z,37.73
2019-03-30T20:25:38.135Z,37.35
2019-03-30T20:28:23.105Z,37.11
2019-03-30T20:33:23.870Z,36.88
2019-03-30T20:35:53.104Z,37.04
2019-03-30T20:38:20.405Z,37.63
2019-03-30T20:45:52.235Z,37.58
2019-03-30T20:48:26.829Z,37.55
2019-03-30T20:50:57.527Z,37.35
2019-03-30T20:53:38.345Z,37.23
2019-03-30T20:56:05.787Z,37.36
2019-03-30T20:58:43.382Z,37.56
2019-03-30T21:01:10.582Z,37.57
2019-03-30T21:03:44.042Z,37.52
2019-03-30T21:06:16.021Z,37.53
2019-03-30T21:08:43.177Z,37.46
2019-03-30T21:11:10.446Z,37.53
2019-03-30T21:13:44.233Z,37.47
2019-03-30T21:16:12.422Z,37.45
2019-03-30T21:18:44.681Z,37.33
2019-03-30T21:21:13.894Z,37.10
2019-03-30T21:23:41.204Z,37.03
2019-03-30T21:26:08.558Z,37.11
2019-03-30T21:28:36.128Z,37.43
2019-03-30T21:31:03.168Z,37.44
2019-03-30T21:33:30.626Z,37.54
2019-03-30T21:35:57.977Z,37.70
2019-03-30T21:38:25.333Z,37.89
2019-03-30T21:40:52.387Z,37.88
2019-03-30T21:43:19.950Z,37.85
2019-03-30T21:45:47.301Z,37.68
2019-03-30T21:48:14.338Z,37.55
2019-03-30T21:50:41.388Z,37.46
2019-03-30T21:53:08.425Z,37.59
2019-03-30T21:55:35.793Z,37.89
2019-03-30T21:58:02.863Z,38.27
2019-03-30T22:00:30.220Z,38.67
2019-03-30T22:02:57.554Z,38.85
2019-03-30T22:05:24.611Z,38.95
2019-03-30T22:07:51.959Z,38.92
2019-03-30T22:10:19.009Z,38.88
2019-03-30T22:12:46.054Z,38.60
2019-03-30T22:15:13.411Z,38.48
2019-03-30T22:17:40.782Z,38.36
2019-03-30T22:20:08.119Z,38.43
2019-03-30T22:22:35.190Z,38.04
2019-03-30T22:25:02.245Z,38.03
2019-03-30T22:27:29.288Z,38.21
2019-03-30T22:29:56.440Z,38.31
2019-03-30T22:32:23.489Z,38.15
2019-03-30T22:34:50.813Z,38.27
2019-03-30T22:37:18.170Z,38.36
2019-03-30T22:39:45.212Z,38.54
2019-03-30T22:42:12.264Z,38.74
2019-03-30T22:44:39.304Z,38.87
2019-03-30T22:47:06.670Z,38.90
2019-03-30T22:49:33.958Z,38.92
2019-03-30T22:52:01.005Z,38.82
2019-03-30T22:54:28.343Z,38.77
2019-03-30T22:56:55.685Z,38.76
2019-03-30T22:59:23.054Z,38.62
2019-03-30T23:01:50.106Z,38.60
2019-03-30T23:04:17.439Z,38.61
2019-03-30T23:06:46.751Z,38.53
2019-03-30T23:09:27.033Z,38.59
2019-03-30T23:11:54.370Z,38.41
2019-03-30T23:14:33.845Z,38.39
2019-03-30T23:17:01.086Z,38.46
2019-03-30T23:19:34.360Z,38.41
2019-03-30T23:22:06.448Z,38.43
2019-03-30T23:24:33.757Z,38.49
2019-03-30T23:27:04.178Z,38.51
2019-03-30T23:29:31.539Z,38.43
2019-03-30T23:31:58.892Z,38.25
2019-03-30T23:34:26.177Z,38.23
2019-03-30T23:36:53.502Z,38.33
2019-03-30T23:39:20.791Z,38.27
2019-03-30T23:41:48.126Z,38.34
2019-03-30T23:44:15.466Z,38.95
2019-03-30T23:46:42.821Z,39.39
2019-03-30T23:49:11.169Z,39.89
2019-03-30T23:51:38.468Z,40.36
2019-03-30T23:54:05.761Z,41.10
2019-03-30T23:56:33.065Z,41.37
2019-03-30T23:59:00.355Z,41.79
